Time;durP1;ratioP1;P1;durP2;ratioP2;P2;SDS_P1;SDS_P2;PMS_P1;PMS_P2;Temp;Humidity;BMP_temperature;BMP_pressure;BME280_temperature;BME280_humidity;BME280_pressure;Samples;Min_cycle;Max_cycle;Signal;HPM_P1;HPM_P2
2022/08/01 00:00:00;;;;;;;22.30;16.33;;;;;;;18.82;100.00;101387.59;172738;28;1156;-63
2022/08/01 00:00:08;;;;;;;23.11;16.44;;;;;;;18.86;100.00;101383.81;172745;28;1075;-64
2022/08/01 00:00:14;;;;;;;22.72;16.36;;;;;;;18.89;100.00;101385.41;172705;28;883;-63
2022/08/01 00:00:19;;;;;;;22.65;16.60;;;;;;;18.89;100.00;101388.03;172738;28;938;-63
2022/08/01 00:00:24;;;;;;;22.43;16.87;;;;;;;18.85;100.00;101386.56;172725;28;839;-63
2022/08/01 00:00:30;;;;;;;22.20;17.02;;;;;;;18.89;100.00;101385.41;171974;28;1081;-63
2022/08/01 00:00:37;;;;;;;22.98;17.02;;;;;;;18.88;100.00;101387.19;171980;28;1399;-64
2022/08/01 00:00:42;;;;;;;23.48;16.98;;;;;;;18.90;100.00;101387.94;172691;28;931;-64
2022/08/01 00:00:48;;;;;;;23.55;16.73;;;;;;;18.90;100.00;101385.28;172716;28;851;-64
2022/08/01 00:00:53;;;;;;;22.70;16.33;;;;;;;18.89;100.00;101388.03;172641;28;915;-63
2022/08/01 00:00:58;;;;;;;22.47;16.23;;;;;;;18.83;100.00;101388.44;172755;28;906;-63
2022/08/01 00:01:04;;;;;;;22.10;16.27;;;;;;;18.79;100.00;101393.94;172783;28;1033;-64
2022/08/01 00:01:12;;;;;;;21.30;16.50;;;;;;;18.81;100.00;101385.09;172734;28;1033;-64
2022/08/01 00:01:18;;;;;;;21.83;16.70;;;;;;;18.84;100.00;101391.00;172738;28;949;-63
2022/08/01 00:01:23;;;;;;;21.90;16.83;;;;;;;18.85;100.00;101383.91;172720;28;1033;-64
2022/08/01 00:01:29;;;;;;;21.97;16.97;;;;;;;18.87;100.00;101384.63;172724;28;1006;-63
2022/08/01 00:01:35;;;;;;;22.04;17.10;;;;;;;18.81;100.00;101385.09;172752;28;918;-65
2022/08/01 00:01:41;;;;;;;21.83;16.85;;;;;;;18.71;100.00;101383.06;172739;28;832;-64
2022/08/01 00:01:46;;;;;;;21.60;16.83;;;;;;;18.77;100.00;101390.56;172750;28;962;-64
2022/08/01 00:01:51;;;;;;;22.20;16.93;;;;;;;18.82;100.00;101386.75;172727;28;1085;-64
2022/08/01 00:01:57;;;;;;;21.92;16.88;;;;;;;18.84;100.00;101382.19;172735;28;1033;-64
2022/08/01 00:02:02;;;;;;;21.10;16.67;;;;;;;18.75;100.00;101387.19;172779;28;999;-63
2022/08/01 00:02:08;;;;;;;20.98;16.48;;;;;;;18.72;100.00;101387.38;172717;28;887;-64
2022/08/01 00:02:13;;;;;;;21.47;16.67;;;;;;;18.74;100.00;101387.28;172668;28;839;-64
2022/08/01 00:02:18;;;;;;;20.83;16.47;;;;;;;18.79;100.00;101387.81;172711;28;907;-63
2022/08/01 00:02:24;;;;;;;20.88;16.42;;;;;;;18.81;100.00;101395.66;172727;28;879;-63
2022/08/01 00:02:30;;;;;;;21.67;16.40;;;;;;;18.83;100.00;101388.44;172748;28;784;-64
2022/08/01 00:02:37;;;;;;;21.70;16.63;;;;;;;18.85;100.00;101381.28;172872;28;958;-64
2022/08/01 00:02:43;;;;;;;21.98;16.74;;;;;;;18.87;100.00;101392.56;172727;28;1136;-63
2022/08/01 00:02:48;;;;;;;21.37;16.73;;;;;;;18.81;100.00;101387.72;172794;28;898;-63
2022/08/01 00:02:53;;;;;;;21.20;16.80;;;;;;;18.71;100.00;101385.69;172755;28;962;-63
2022/08/01 00:02:59;;;;;;;20.95;17.10;;;;;;;18.71;100.00;101390.97;172773;28;919;-63
2022/08/01 00:03:05;;;;;;;21.23;17.17;;;;;;;18.71;100.00;101390.97;172771;28;966;-63
2022/08/01 00:03:10;;;;;;;21.77;17.13;;;;;;;18.73;100.00;101383.81;172827;28;1120;-63
2022/08/01 00:03:15;;;;;;;23.02;17.20;;;;;;;18.72;100.00;101386.56;172776;28;859;-63
2022/08/01 00:03:21;;;;;;;23.33;17.23;;;;;;;18.75;100.00;101392.47;172812;28;911;-63
2022/08/01 00:03:26;;;;;;;23.97;17.00;;;;;;;18.77;100.00;101387.94;172834;28;855;-64
2022/08/01 00:03:31;;;;;;;24.45;17.05;;;;;;;18.80;100.00;101386.88;172758;28;1207;-64
2022/08/01 00:03:37;;;;;;;24.07;16.93;;;;;;;18.77;100.00;101387.94;172843;28;855;-64
2022/08/01 00:03:42;;;;;;;22.80;16.77;;;;;;;18.77;100.00;101387.94;172793;28;898;-63
2022/08/01 00:03:47;;;;;;;21.83;16.60;;;;;;;18.79;100.00;101393.94;172801;28;799;-63
2022/08/01 00:03:53;;;;;;;22.03;16.73;;;;;;;18.81;100.00;101390.38;172773;28;1076;-63
2022/08/01 00:03:58;;;;;;;21.23;16.87;;;;;;;18.82;100.00;101387.59;172804;28;1025;-63
2022/08/01 00:04:04;;;;;;;20.80;16.55;;;;;;;18.81;100.00;101387.72;172830;28;922;-63
2022/08/01 00:04:10;;;;;;;20.92;16.60;;;;;;;18.79;100.00;101388.66;172779;28;862;-63
2022/08/01 00:04:15;;;;;;;21.87;16.83;;;;;;;18.73;100.00;101388.25;172781;28;903;-63
2022/08/01 00:04:20;;;;;;;22.17;16.87;;;;;;;18.67;100.00;101389.50;172797;28;894;-63
2022/08/01 00:04:26;;;;;;;22.02;16.63;;;;;;;18.65;100.00;101383.50;172773;28;1088;-64
2022/08/01 00:04:31;;;;;;;21.47;16.50;;;;;;;18.70;100.00;101391.09;172803;28;939;-64
2022/08/01 00:04:36;;;;;;;22.37;16.60;;;;;;;18.72;100.00;101386.56;172806;28;1029;-63
2022/08/01 00:04:42;;;;;;;22.98;16.67;;;;;;;18.75;100.00;101384.53;172800;28;835;-63
2022/08/01 00:04:47;;;;;;;22.90;16.43;;;;;;;18.76;100.00;101382.75;172776;28;1068;-63
2022/08/01 00:04:55;;;;;;;22.48;16.58;;;;;;;18.79;100.00;101380.72;172797;28;1021;-64
2022/08/01 00:05:01;;;;;;;23.20;16.73;;;;;;;18.79;100.00;101388.66;172718;28;852;-64
2022/08/01 00:05:08;;;;;;;21.97;16.63;;;;;;;18.81;100.00;101382.44;172788;28;859;-64
2022/08/01 00:05:13;;;;;;;21.50;16.50;;;;;;;18.83;100.00;101396.38;172775;28;978;-64
2022/08/01 00:05:19;;;;;;;21.80;16.40;;;;;;;18.84;100.00;101390.13;172809;28;1051;-64
2022/08/01 00:05:24;;;;;;;22.03;16.10;;;;;;;18.85;100.00;101383.91;172774;28;1091;-64
2022/08/01 00:05:30;;;;;;;22.55;16.15;;;;;;;18.87;100.00;101379.34;172697;28;1147;-64
2022/08/01 00:05:35;;;;;;;23.27;16.40;;;;;;;18.88;100.00;101381.03;172834;28;950;-64
2022/08/01 00:05:43;;;;;;;22.60;16.27;;;;;;;18.89;100.00;101378.28;172788;28;827;-64
2022/08/01 00:05:48;;;;;;;22.50;16.43;;;;;;;18.91;100.00;101386.13;172792;28;907;-63
2022/08/01 00:05:53;;;;;;;22.20;16.67;;;;;;;18.91;100.00;101388.75;172795;28;910;-64
2022/08/01 00:05:59;;;;;;;22.37;16.63;;;;;;;18.92;100.00;101390.44;172789;28;894;-64
2022/08/01 00:06:04;;;;;;;22.63;16.70;;;;;;;18.93;100.00;101384.22;172823;28;860;-64
2022/08/01 00:06:09;;;;;;;22.95;16.95;;;;;;;18.94;100.00;101385.91;172768;28;1021;-65
2022/08/01 00:06:15;;;;;;;22.90;17.13;;;;;;;18.94;100.00;101380.63;172776;28;914;-64
2022/08/01 00:06:20;;;;;;;23.47;17.00;;;;;;;18.95;100.00;101386.75;172774;28;871;-64
2022/08/01 00:06:25;;;;;;;23.83;17.08;;;;;;;18.94;100.00;101387.69;172810;28;890;-64
2022/08/01 00:06:31;;;;;;;23.17;17.13;;;;;;;18.91;100.00;101389.63;172796;28;1076;-64
2022/08/01 00:06:37;;;;;;;22.80;16.95;;;;;;;18.92;100.00;101387.78;172791;28;1081;-64
2022/08/01 00:06:42;;;;;;;23.27;16.80;;;;;;;18.93;100.00;101384.22;172807;28;907;-64
2022/08/01 00:06:47;;;;;;;22.73;16.90;;;;;;;18.88;100.00;101381.03;172776;28;965;-64
2022/08/01 00:06:53;;;;;;;23.37;17.17;;;;;;;18.81;100.00;101388.56;172779;28;887;-63
2022/08/01 00:06:58;;;;;;;23.30;17.10;;;;;;;18.86;100.00;101393.53;172802;28;918;-64
2022/08/01 00:07:03;;;;;;;24.25;17.33;;;;;;;18.84;100.00;101390.13;172795;28;934;-64
2022/08/01 00:07:09;;;;;;;23.70;17.20;;;;;;;18.79;100.00;101391.28;172752;28;827;-64
2022/08/01 00:07:14;;;;;;;24.00;17.20;;;;;;;18.74;100.00;101382.84;172772;28;1021;-64
2022/08/01 00:07:20;;;;;;;23.77;16.95;;;;;;;18.77;100.00;101390.56;172793;28;836;-65
2022/08/01 00:07:25;;;;;;;22.57;16.83;;;;;;;18.82;100.00;101386.75;172750;28;1205;-64
2022/08/01 00:07:32;;;;;;;21.77;16.70;;;;;;;18.86;100.00;101385.59;172836;28;883;-64
2022/08/01 00:07:38;;;;;;;21.76;16.50;;;;;;;18.88;100.00;101381.88;172820;28;878;-64
2022/08/01 00:07:44;;;;;;;22.10;16.60;;;;;;;18.90;100.00;101392.38;172812;28;965;-65
2022/08/01 00:07:49;;;;;;;21.77;16.63;;;;;;;18.90;100.00;101384.44;172774;28;1021;-64
2022/08/01 00:07:55;;;;;;;22.70;16.60;;;;;;;18.91;100.00;101381.69;172759;28;895;-64
2022/08/01 00:08:00;;;;;;;23.53;16.67;;;;;;;18.94;100.00;101385.06;172771;28;866;-64
2022/08/01 00:08:05;;;;;;;23.75;17.00;;;;;;;18.95;100.00;101384.94;172816;28;930;-63
2022/08/01 00:08:11;;;;;;;24.53;17.27;;;;;;;18.95;100.00;101382.31;172772;28;851;-64
2022/08/01 00:08:16;;;;;;;24.60;17.37;;;;;;;18.96;100.00;101394.59;172793;28;811;-63
2022/08/01 00:08:21;;;;;;;24.65;17.70;;;;;;;18.98;100.00;101391.81;172797;28;819;-64
2022/08/01 00:08:27;;;;;;;24.03;17.60;;;;;;;18.96;100.00;101386.66;172807;28;882;-64
2022/08/01 00:08:32;;;;;;;23.60;17.67;;;;;;;18.95;100.00;101386.75;172793;28;1033;-64
2022/08/01 00:08:37;;;;;;;23.20;17.45;;;;;;;18.96;100.00;101383.16;172838;28;938;-64
2022/08/01 00:08:43;;;;;;;22.57;17.30;;;;;;;18.91;100.00;101386.13;173328;28;895;-64
2022/08/01 00:08:48;;;;;;;21.97;17.03;;;;;;;18.85;100.00;101391.84;173447;28;866;-65
2022/08/01 00:08:53;;;;;;;22.47;17.00;;;;;;;18.87;100.00;101387.28;173415;28;1029;-65
2022/08/01 00:08:58;;;;;;;23.02;17.13;;;;;;;18.90;100.00;101389.72;173402;28;1095;-64
2022/08/01 00:09:04;;;;;;;23.57;17.20;;;;;;;18.92;100.00;101393.09;173421;28;891;-64
2022/08/01 00:09:09;;;;;;;24.90;17.60;;;;;;;18.92;100.00;101385.16;173344;28;1076;-64
2022/08/01 00:09:14;;;;;;;25.10;17.58;;;;;;;18.90;100.00;101387.06;173378;28;1022;-64
2022/08/01 00:09:20;;;;;;;25.63;17.60;;;;;;;18.90;100.00;101390.56;173409;28;1033;-64
2022/08/01 00:09:25;;;;;;;24.50;17.53;;;;;;;18.91;100.00;101391.41;173404;28;974;-63
2022/08/01 00:09:30;;;;;;;23.98;17.55;;;;;;;18.90;100.00;101385.28;173415;28;961;-63
2022/08/01 00:09:36;;;;;;;22.33;17.37;;;;;;;18.88;100.00;101386.31;173460;28;843;-64
2022/08/01 00:09:41;;;;;;;21.43;17.10;;;;;;;18.85;100.00;101386.56;173349;28;815;-64
2022/08/01 00:09:46;;;;;;;21.73;17.10;;;;;;;18.87;100.00;101384.63;173355;28;911;-64
2022/08/01 00:09:52;;;;;;;22.17;17.30;;;;;;;18.74;100.00;101390.78;173384;28;895;-64
2022/08/01 00:09:57;;;;;;;22.27;17.02;;;;;;;18.66;100.00;101379.88;173417;28;1025;-63
2022/08/01 00:10:08;;;;;;;23.17;16.90;;;;;;;18.60;100.00;101389.06;173388;28;1061;-63
2022/08/01 00:10:15;;;;;;;23.25;16.89;;;;;;;18.69;100.00;101382.31;173406;28;1284;-64
2022/08/01 00:10:21;;;;;;;22.38;16.68;;;;;;;18.74;100.00;101388.13;173317;28;1447;-64
2022/08/01 00:10:26;;;;;;;21.77;16.67;;;;;;;18.75;100.00;101387.19;173403;28;1013;-63
2022/08/01 00:10:31;;;;;;;20.75;16.67;;;;;;;18.78;100.00;101386.97;173400;28;1021;-63
2022/08/01 00:10:37;;;;;;;21.03;16.80;;;;;;;18.76;100.00;101383.59;173455;28;851;-63
2022/08/01 00:10:42;;;;;;;21.05;16.65;;;;;;;18.72;100.00;101384.72;173428;28;831;-63
2022/08/01 00:10:48;;;;;;;21.47;16.60;;;;;;;18.75;100.00;101387.19;173395;28;1076;-63
2022/08/01 00:10:53;;;;;;;21.97;16.60;;;;;;;18.79;100.00;101385.19;173415;28;831;-63
2022/08/01 00:10:58;;;;;;;22.52;16.60;;;;;;;18.77;100.00;101385.28;173380;28;1025;-64
2022/08/01 00:11:04;;;;;;;22.73;16.60;;;;;;;18.72;100.00;101383.91;173439;28;946;-64
2022/08/01 00:11:09;;;;;;;22.07;16.50;;;;;;;18.67;100.00;101384.22;173341;28;1965;-64
2022/08/01 00:11:14;;;;;;;22.40;17.00;;;;;;;18.66;100.00;101383.38;173373;28;711;-64
2022/08/01 00:11:20;;;;;;;22.50;17.20;;;;;;;18.71;100.00;101380.41;173328;28;886;-63
2022/08/01 00:11:26;;;;;;;23.43;17.30;;;;;;;18.72;100.00;101382.09;173427;28;966;-63
2022/08/01 00:11:31;;;;;;;23.15;17.23;;;;;;;18.71;100.00;101390.16;173339;28;910;-63
2022/08/01 00:11:37;;;;;;;24.13;17.37;;;;;;;18.71;100.00;101380.41;173433;28;846;-63
2022/08/01 00:11:42;;;;;;;24.52;17.08;;;;;;;18.73;100.00;101385.59;173385;28;962;-64
2022/08/01 00:11:47;;;;;;;24.53;16.60;;;;;;;18.75;100.00;101387.19;173380;28;1021;-63
2022/08/01 00:11:53;;;;;;;23.33;16.50;;;;;;;18.78;100.00;101386.97;173391;28;903;-63
2022/08/01 00:11:59;;;;;;;22.83;16.45;;;;;;;18.81;100.00;101385.91;173352;28;1029;-63
2022/08/01 00:12:04;;;;;;;22.80;16.50;;;;;;;18.85;100.00;101386.56;173442;28;707;-63
2022/08/01 00:12:10;;;;;;;22.98;16.75;;;;;;;18.86;100.00;101382.97;173396;28;949;-64
2022/08/01 00:12:15;;;;;;;21.92;16.92;;;;;;;18.87;100.00;101385.50;173387;28;911;-64
2022/08/01 00:12:20;;;;;;;22.70;17.23;;;;;;;18.88;100.00;101387.19;172936;28;997;-64
2022/08/01 00:12:26;;;;;;;23.37;17.43;;;;;;;18.88;100.00;101386.31;172786;28;1080;-64
2022/08/01 00:12:31;;;;;;;23.40;17.55;;;;;;;18.89;100.00;101386.22;172782;28;1002;-64
2022/08/01 00:12:37;;;;;;;23.67;17.50;;;;;;;18.92;100.00;101377.22;172816;28;863;-63
2022/08/01 00:12:44;;;;;;;24.33;17.55;;;;;;;18.91;100.00;101386.13;172704;28;1030;-64
2022/08/01 00:12:50;;;;;;;24.40;17.50;;;;;;;18.88;100.00;101381.03;172624;28;1650;-63
2022/08/01 00:12:55;;;;;;;24.53;17.40;;;;;;;18.88;100.00;101381.03;172751;28;919;-63
2022/08/01 00:13:01;;;;;;;24.40;17.50;;;;;;;18.84;100.00;101390.13;172708;28;1069;-64
2022/08/01 00:13:06;;;;;;;25.33;17.37;;;;;;;18.85;100.00;101391.84;172737;28;1058;-64
2022/08/01 00:13:11;;;;;;;24.92;17.40;;;;;;;18.82;100.00;101387.59;172692;28;978;-63
2022/08/01 00:13:17;;;;;;;24.70;17.50;;;;;;;18.76;100.00;101388.88;172686;28;1198;-62
2022/08/01 00:13:22;;;;;;;23.67;17.27;;;;;;;18.72;100.00;101383.91;172656;28;883;-63
2022/08/01 00:13:27;;;;;;;23.60;17.25;;;;;;;18.73;100.00;101383.81;172674;28;923;-63
2022/08/01 00:13:33;;;;;;;23.23;17.13;;;;;;;18.73;100.00;101383.81;172708;28;1014;-62
2022/08/01 00:13:38;;;;;;;21.83;17.05;;;;;;;18.69;100.00;101387.63;172754;28;824;-63
2022/08/01 00:13:43;;;;;;;21.53;17.00;;;;;;;18.64;100.00;101385.28;172731;28;977;-64
2022/08/01 00:13:49;;;;;;;21.73;16.87;;;;;;;18.65;100.00;101386.97;172703;28;903;-63
2022/08/01 00:13:54;;;;;;;22.23;17.00;;;;;;;18.65;100.00;101388.78;172685;28;1065;-64
2022/08/01 00:13:59;;;;;;;22.50;17.08;;;;;;;18.66;100.00;101393.97;172711;28;969;-64
2022/08/01 00:14:05;;;;;;;23.60;17.20;;;;;;;18.70;100.00;101385.78;172767;28;895;-64
2022/08/01 00:14:10;;;;;;;25.45;17.33;;;;;;;18.67;100.00;101389.50;172706;28;843;-63
2022/08/01 00:14:16;;;;;;;24.90;17.23;;;;;;;18.65;100.00;101386.97;172706;28;839;-64
2022/08/01 00:14:21;;;;;;;24.73;17.20;;;;;;;18.68;100.00;101385.91;172725;28;1033;-63
2022/08/01 00:14:27;;;;;;;24.73;17.30;;;;;;;18.72;100.00;101382.09;172746;28;848;-63
2022/08/01 00:14:32;;;;;;;24.07;17.23;;;;;;;18.75;100.00;101392.47;172664;28;828;-64
2022/08/01 00:14:37;;;;;;;23.08;17.35;;;;;;;18.78;100.00;101388.75;172733;28;898;-63
2022/08/01 00:14:43;;;;;;;22.23;17.20;;;;;;;18.81;100.00;101390.38;172713;28;875;-64
2022/08/01 00:14:48;;;;;;;22.48;17.23;;;;;;;18.78;100.00;101386.97;172261;28;919;-64
2022/08/01 00:14:54;;;;;;;22.43;17.13;;;;;;;18.77;100.00;101390.56;171895;28;832;-64
2022/08/01 00:15:00;;;;;;;22.88;17.17;;;;;;;18.75;100.00;101392.47;171993;28;1033;-64
2022/08/01 00:15:09;;;;;;;23.45;17.02;;;;;;;18.77;100.00;101390.56;172833;28;1053;-64
2022/08/01 00:15:17;;;;;;;23.71;17.16;;;;;;;18.76;100.00;101388.03;172741;28;1080;-63
2022/08/01 00:15:22;;;;;;;24.37;17.40;;;;;;;18.78;100.00;101394.91;172770;28;972;-64
2022/08/01 00:15:27;;;;;;;24.77;17.50;;;;;;;18.81;100.00;101390.38;172685;28;1267;-64
2022/08/01 00:15:33;;;;;;;24.23;17.40;;;;;;;18.84;100.00;101395.41;172766;28;947;-64
2022/08/01 00:15:39;;;;;;;24.58;17.60;;;;;;;18.82;100.00;101387.59;172830;28;863;-64
2022/08/01 00:15:44;;;;;;;24.60;17.70;;;;;;;18.77;100.00;101389.72;172778;28;934;-64
2022/08/01 00:15:49;;;;;;;24.77;17.58;;;;;;;18.77;100.00;101387.94;172767;28;926;-65
2022/08/01 00:15:55;;;;;;;24.30;17.53;;;;;;;18.79;100.00;101396.59;172775;28;915;-64
2022/08/01 00:16:00;;;;;;;24.33;17.70;;;;;;;18.81;100.00;101390.38;172795;28;843;-64
2022/08/01 00:16:06;;;;;;;23.35;17.52;;;;;;;18.78;100.00;101386.13;172834;28;989;-63
2022/08/01 00:16:11;;;;;;;22.85;17.42;;;;;;;18.73;100.00;101382.94;172777;28;961;-64
2022/08/01 00:16:16;;;;;;;22.40;17.43;;;;;;;18.69;100.00;101390.25;172778;28;1072;-64
2022/08/01 00:16:22;;;;;;;22.13;17.47;;;;;;;18.68;100.00;101382.44;172791;28;883;-64
2022/08/01 00:16:28;;;;;;;22.67;17.25;;;;;;;18.63;100.00;101382.72;172798;28;847;-65
2022/08/01 00:16:33;;;;;;;22.60;17.02;;;;;;;18.58;100.00;101388.31;172771;28;1037;-65
2022/08/01 00:16:38;;;;;;;22.50;17.10;;;;;;;18.62;100.00;101383.69;172860;28;827;-63
2022/08/01 00:16:44;;;;;;;22.13;17.10;;;;;;;18.60;100.00;101388.22;172777;28;1089;-64
2022/08/01 00:16:49;;;;;;;23.48;17.27;;;;;;;18.62;100.00;101392.44;172725;28;839;-65
2022/08/01 00:16:55;;;;;;;24.53;17.63;;;;;;;18.66;100.00;101387.81;172794;28;835;-64
2022/08/01 00:17:00;;;;;;;25.10;17.85;;;;;;;18.69;100.00;101390.25;172643;28;739;-64
2022/08/01 00:17:05;;;;;;;25.40;17.90;;;;;;;18.70;100.00;101385.78;172772;28;905;-64
2022/08/01 00:17:11;;;;;;;26.20;17.83;;;;;;;18.72;100.00;101386.56;172724;28;930;-64
2022/08/01 00:17:16;;;;;;;26.02;17.90;;;;;;;18.73;100.00;101393.53;172722;28;899;-63
2022/08/01 00:17:21;;;;;;;25.97;17.80;;;;;;;18.71;100.00;101384.88;172719;28;1025;-63
2022/08/01 00:17:27;;;;;;;25.07;17.77;;;;;;;18.67;100.00;101394.78;172722;28;1030;-64
2022/08/01 00:17:33;;;;;;;25.55;17.95;;;;;;;18.68;100.00;101391.19;172644;28;859;-63
2022/08/01 00:17:39;;;;;;;26.10;18.25;;;;;;;18.63;100.00;101388.03;172731;28;1077;-63
2022/08/01 00:17:44;;;;;;;25.85;18.30;;;;;;;18.63;100.00;101391.53;172730;28;875;-63
2022/08/01 00:17:49;;;;;;;25.00;18.20;;;;;;;18.64;100.00;101380.00;172691;28;836;-63
2022/08/01 00:17:55;;;;;;;24.47;17.97;;;;;;;18.62;100.00;101387.16;172712;28;1215;-63
2022/08/01 00:18:00;;;;;;;23.30;17.63;;;;;;;18.64;100.00;101387.06;172732;28;859;-63
2022/08/01 00:18:06;;;;;;;22.93;17.47;;;;;;;18.68;100.00;101393.00;172754;28;835;-63
2022/08/01 00:18:11;;;;;;;22.33;17.15;;;;;;;18.71;100.00;101384.88;172738;28;839;-63
2022/08/01 00:18:16;;;;;;;22.93;16.97;;;;;;;18.73;100.00;101383.81;172745;28;812;-64
2022/08/01 00:18:22;;;;;;;22.93;17.00;;;;;;;18.75;100.00;101392.47;172721;28;1060;-63
2022/08/01 00:18:27;;;;;;;23.38;17.02;;;;;;;18.76;100.00;101388.88;172704;28;711;-64
2022/08/01 00:18:35;;;;;;;24.87;17.30;;;;;;;18.79;100.00;101385.19;172710;28;832;-63
2022/08/01 00:18:40;;;;;;;24.85;17.48;;;;;;;18.79;100.00;101386.00;172625;28;1226;-64
2022/08/01 00:18:45;;;;;;;25.63;17.67;;;;;;;18.76;100.00;101391.53;172706;28;919;-63
2022/08/01 00:18:52;;;;;;;25.05;17.65;;;;;;;18.79;100.00;101398.41;172612;28;903;-63
2022/08/01 00:18:57;;;;;;;25.67;17.83;;;;;;;18.79;100.00;101393.13;172791;28;1065;-63
2022/08/01 00:19:03;;;;;;;24.67;17.63;;;;;;;18.81;100.00;101390.38;173353;28;1037;-64
2022/08/01 00:19:08;;;;;;;24.70;17.38;;;;;;;18.83;100.00;101389.31;173428;28;1049;-63
2022/08/01 00:19:13;;;;;;;24.37;17.53;;;;;;;18.86;100.00;101383.81;172613;28;982;-64
2022/08/01 00:19:19;;;;;;;24.85;17.63;;;;;;;18.87;100.00;101387.28;172711;28;1037;-63
2022/08/01 00:19:24;;;;;;;24.67;17.57;;;;;;;18.87;100.00;101387.28;172749;28;847;-63
2022/08/01 00:19:30;;;;;;;24.23;17.33;;;;;;;18.85;100.00;101394.50;172721;28;1002;-63
2022/08/01 00:19:35;;;;;;;23.65;17.42;;;;;;;18.82;100.00;101392.88;172701;28;935;-63
2022/08/01 00:19:41;;;;;;;24.60;17.50;;;;;;;18.76;100.00;101394.19;172662;28;899;-63
2022/08/01 00:19:46;;;;;;;26.80;17.10;;;;;;;18.71;100.00;101390.97;172705;28;966;-63
2022/08/01 00:19:52;;;;;;;25.90;16.97;;;;;;;18.70;100.00;101391.94;172712;28;891;-64
2022/08/01 00:19:57;;;;;;;25.77;17.02;;;;;;;18.73;100.00;101391.75;172690;28;1029;-63
2022/08/01 00:20:06;;;;;;;26.43;16.97;;;;;;;18.73;100.00;101389.09;172717;28;1065;-64
2022/08/01 00:20:14;;;;;;;25.21;16.96;;;;;;;18.72;100.00;101390.03;172698;28;1102;-63
2022/08/01 00:20:19;;;;;;;22.53;17.17;;;;;;;18.76;100.00;101394.19;172749;28;879;-64
2022/08/01 00:20:25;;;;;;;23.40;17.13;;;;;;;18.77;100.00;101390.56;172719;28;903;-63
2022/08/01 00:20:30;;;;;;;23.13;17.17;;;;;;;18.78;100.00;101386.97;172627;28;1030;-63
2022/08/01 00:20:35;;;;;;;23.47;17.03;;;;;;;18.75;100.00;101394.28;172771;28;959;-63
2022/08/01 00:20:41;;;;;;;24.20;17.33;;;;;;;18.74;100.00;101390.78;172158;28;843;-63
2022/08/01 00:20:46;;;;;;;23.55;17.25;;;;;;;18.74;100.00;101385.50;172029;28;844;-63
2022/08/01 00:20:51;;;;;;;23.67;17.10;;;;;;;18.72;100.00;101384.72;172635;28;1080;-63
2022/08/01 00:20:57;;;;;;;22.87;17.00;;;;;;;18.75;100.00;101387.19;172696;28;942;-63
2022/08/01 00:21:03;;;;;;;23.42;17.13;;;;;;;18.74;100.00;101392.56;172695;28;923;-62
2022/08/01 00:21:09;;;;;;;23.85;17.08;;;;;;;18.66;100.00;101393.09;172751;28;1093;-63
2022/08/01 00:21:14;;;;;;;24.20;16.80;;;;;;;18.62;100.00;101402.19;172763;28;875;-63
2022/08/01 00:21:20;;;;;;;23.90;16.97;;;;;;;18.62;100.00;101396.91;172820;28;831;-62
2022/08/01 00:21:25;;;;;;;24.13;17.10;;;;;;;18.65;100.00;101397.53;172783;28;914;-63
2022/08/01 00:21:30;;;;;;;24.30;17.23;;;;;;;18.64;100.00;101397.63;172794;28;843;-63
2022/08/01 00:21:36;;;;;;;24.45;17.17;;;;;;;18.62;100.00;101391.63;172797;28;926;-63
2022/08/01 00:21:41;;;;;;;23.63;17.33;;;;;;;18.65;100.00;101396.72;172726;28;1021;-63
2022/08/01 00:21:47;;;;;;;24.43;17.40;;;;;;;18.64;100.00;101389.69;172708;28;1452;-63
2022/08/01 00:21:52;;;;;;;24.10;17.40;;;;;;;18.65;100.00;101391.41;172782;28;855;-64
2022/08/01 00:21:57;;;;;;;24.23;17.37;;;;;;;18.61;100.00;101397.88;172774;28;1249;-63
2022/08/01 00:22:03;;;;;;;24.30;17.47;;;;;;;18.60;100.00;101389.06;172785;28;918;-64
2022/08/01 00:22:08;;;;;;;23.55;17.35;;;;;;;18.65;100.00;101391.41;172806;28;1025;-63
2022/08/01 00:22:14;;;;;;;23.63;17.03;;;;;;;18.67;100.00;101394.78;172792;28;1447;-63
2022/08/01 00:22:19;;;;;;;23.33;16.83;;;;;;;18.69;100.00;101400.84;172785;28;886;-64
2022/08/01 00:22:24;;;;;;;23.80;16.83;;;;;;;18.70;100.00;101394.59;172769;28;1025;-64
2022/08/01 00:22:31;;;;;;;23.23;16.75;;;;;;;18.72;100.00;101390.03;172790;28;1029;-63
2022/08/01 00:22:37;;;;;;;24.33;16.80;;;;;;;18.77;100.00;101395.00;172802;28;1136;-64
2022/08/01 00:22:42;;;;;;;24.77;16.70;;;;;;;18.77;100.00;101390.56;172807;28;970;-63
2022/08/01 00:22:48;;;;;;;24.70;16.75;;;;;;;18.79;100.00;101393.94;172795;28;954;-64
2022/08/01 00:22:53;;;;;;;24.13;16.77;;;;;;;18.82;100.00;101392.06;172807;28;886;-63
2022/08/01 00:22:58;;;;;;;25.27;16.80;;;;;;;18.82;100.00;101394.69;172764;28;851;-64
2022/08/01 00:23:04;;;;;;;25.23;17.23;;;;;;;18.84;100.00;101392.78;172753;28;832;-64
2022/08/01 00:23:10;;;;;;;25.02;17.48;;;;;;;18.84;100.00;101398.91;173321;28;1076;-63
2022/08/01 00:23:15;;;;;;;25.40;17.77;;;;;;;18.81;100.00;101396.47;173378;28;1022;-63
2022/08/01 00:23:20;;;;;;;26.30;17.83;;;;;;;18.81;100.00;101396.47;173436;28;733;-64
2022/08/01 00:23:26;;;;;;;26.88;18.05;;;;;;;18.82;100.00;101394.69;173418;28;891;-64
2022/08/01 00:23:31;;;;;;;25.93;17.80;;;;;;;18.84;100.00;101395.41;173404;28;1034;-64
2022/08/01 00:23:37;;;;;;;28.30;17.77;;;;;;;18.84;100.00;101395.41;173465;28;839;-64
2022/08/01 00:23:43;;;;;;;29.25;17.75;;;;;;;18.85;100.00;101391.84;173389;28;1041;-64
2022/08/01 00:23:48;;;;;;;28.90;17.53;;;;;;;18.81;100.00;101390.38;173387;28;815;-64
2022/08/01 00:23:54;;;;;;;28.50;17.42;;;;;;;18.78;100.00;101397.53;173386;28;855;-63
2022/08/01 00:23:59;;;;;;;27.70;17.20;;;;;;;18.72;100.00;101397.94;173372;28;1025;-63
2022/08/01 00:24:05;;;;;;;26.47;17.07;;;;;;;18.66;100.00;101388.69;173389;28;903;-63
2022/08/01 00:24:10;;;;;;;23.75;17.02;;;;;;;18.64;100.00;101389.69;173428;28;835;-64
2022/08/01 00:24:15;;;;;;;23.80;16.93;;;;;;;18.66;100.00;101390.47;173367;28;906;-63
2022/08/01 00:24:21;;;;;;;24.70;17.13;;;;;;;18.67;100.00;101392.16;173376;28;911;-64
2022/08/01 00:24:26;;;;;;;25.73;17.27;;;;;;;18.70;100.00;101396.38;173398;28;899;-63
2022/08/01 00:24:32;;;;;;;26.80;17.47;;;;;;;18.65;100.00;101394.88;173378;28;1073;-63
2022/08/01 00:24:37;;;;;;;28.50;17.60;;;;;;;18.61;100.00;101393.41;173447;28;898;-64
2022/08/01 00:24:42;;;;;;;28.10;17.73;;;;;;;18.64;100.00;101395.00;173364;28;919;-65
2022/08/01 00:24:48;;;;;;;27.92;17.83;;;;;;;18.67;100.00;101389.50;173365;28;1206;-63
2022/08/01 00:24:53;;;;;;;27.47;18.10;;;;;;;18.71;100.00;101388.34;173277;28;1422;-64
2022/08/01 00:24:58;;;;;;;27.10;17.90;;;;;;;18.73;100.00;101389.09;172609;28;1087;-64
2022/08/01 00:25:05;;;;;;;25.45;17.92;;;;;;;18.73;100.00;101393.53;172692;28;839;-63
2022/08/01 00:25:11;;;;;;;25.40;17.80;;;;;;;18.68;100.00;101396.47;172721;28;1001;-63
2022/08/01 00:25:16;;;;;;;24.33;17.80;;;;;;;18.62;100.00;101392.44;172720;28;823;-63
2022/08/01 00:25:21;;;;;;;23.37;17.53;;;;;;;18.63;100.00;101393.31;172651;28;839;-63
2022/08/01 00:25:27;;;;;;;23.38;17.48;;;;;;;18.65;100.00;101392.25;172706;28;1088;-62
2022/08/01 00:25:32;;;;;;;24.07;17.50;;;;;;;18.69;100.00;101392.91;172723;28;910;-63
2022/08/01 00:25:37;;;;;;;24.10;17.33;;;;;;;18.72;100.00;101397.94;172801;28;839;-63
2022/08/01 00:25:43;;;;;;;24.87;17.50;;;;;;;18.76;100.00;101393.31;172724;28;1017;-63
2022/08/01 00:25:48;;;;;;;25.67;17.30;;;;;;;18.77;100.00;101395.00;172709;28;938;-63